Time;durP1;ratioP1;P1;durP2;ratioP2;P2;SDS_P1;SDS_P2;PMS_P1;PMS_P2;Temp;Humidity;BMP_temperature;BMP_pressure;BME280_temperature;BME280_humidity;BME280_pressure;Samples;Min_cycle;Max_cycle;Signal;HPM_P1;HPM_P2
2021/05/14 00:00:47;;;;;;;42.83;24.85;;;;;;;12.63;77.43;99240.23;1674112;83;25658;-69
2021/05/14 00:03:19;;;;;;;45.67;25.90;;;;;;;12.62;77.31;99230.45;1669920;83;25900;-69
2021/05/14 00:05:48;;;;;;;45.52;25.10;;;;;;;12.58;77.81;99230.30;1684585;82;25836;-69
2021/05/14 00:08:18;;;;;;;48.92;25.80;;;;;;;12.53;78.10;99234.30;1682357;82;26069;-69
2021/05/14 00:10:46;;;;;;;51.02;28.55;;;;;;;12.52;78.33;99250.05;1663475;83;25404;-70
2021/05/14 00:13:16;;;;;;;58.28;27.93;;;;;;;12.49;78.13;99233.67;1686933;82;26092;-69
2021/05/14 00:15:48;;;;;;;49.77;28.50;;;;;;;12.50;78.21;99238.56;1676394;82;25827;-69
2021/05/14 00:18:17;;;;;;;46.58;25.40;;;;;;;12.48;78.14;99235.98;1694023;82;26315;-69
2021/05/14 00:20:47;;;;;;;40.00;24.27;;;;;;;12.46;78.28;99242.45;1687091;83;25725;-69
2021/05/14 00:23:17;;;;;;;45.75;25.90;;;;;;;12.42;78.57;99244.98;1676867;82;25774;-70
2021/05/14 00:25:46;;;;;;;58.13;27.45;;;;;;;12.39;78.48;99238.48;1677737;83;25614;-69
2021/05/14 00:28:14;;;;;;;54.33;29.60;;;;;;;12.42;78.35;99236.92;1647471;84;26046;-69
2021/05/14 00:30:44;;;;;;;48.65;28.32;;;;;;;12.43;78.19;99231.44;1691718;82;25911;-69
2021/05/14 00:33:14;;;;;;;55.33;28.95;;;;;;;12.41;78.05;99226.66;1693661;82;26059;-70
2021/05/14 00:35:44;;;;;;;45.23;26.43;;;;;;;12.39;78.14;99231.77;1697169;82;25731;-69
2021/05/14 00:38:14;;;;;;;46.77;25.82;;;;;;;12.37;78.02;99232.37;1694254;82;25947;-70
2021/05/14 00:40:43;;;;;;;49.42;25.15;;;;;;;12.41;77.98;99235.20;1694156;82;25760;-70
2021/05/14 00:43:12;;;;;;;48.78;27.30;;;;;;;12.45;77.99;99242.07;1676922;82;25791;-69
2021/05/14 00:45:41;;;;;;;52.60;25.30;;;;;;;12.40;78.11;99238.37;1694444;82;25731;-69
2021/05/14 00:48:12;;;;;;;45.28;26.62;;;;;;;12.30;78.06;99235.98;1667383;83;25582;-69
2021/05/14 00:50:41;;;;;;;49.07;26.40;;;;;;;12.26;78.21;99234.01;1690127;82;27741;-69
2021/05/14 00:53:12;;;;;;;48.35;26.97;;;;;;;12.22;78.58;99238.37;1677536;83;25578;-69
2021/05/14 00:55:42;;;;;;;49.27;27.30;;;;;;;12.18;78.51;99243.59;1670854;84;26561;-69
2021/05/14 00:58:13;;;;;;;52.50;29.07;;;;;;;12.15;78.57;99243.81;1697836;82;25700;-69
2021/05/14 01:00:44;;;;;;;59.48;29.55;;;;;;;12.16;78.42;99246.39;1693378;82;25600;-70
2021/05/14 01:03:15;;;;;;;52.20;25.90;;;;;;;12.13;78.34;99243.92;1655877;83;25922;-70
2021/05/14 01:05:45;;;;;;;48.17;25.72;;;;;;;12.12;78.59;99244.03;1664963;83;25704;-69
2021/05/14 01:08:14;;;;;;;55.20;30.00;;;;;;;12.11;78.45;99237.80;1635348;84;25587;-69
2021/05/14 01:10:46;;;;;;;55.58;30.65;;;;;;;12.13;78.44;99239.03;1665295;84;25653;-69
2021/05/14 01:13:25;;;;;;;55.17;29.23;;;;;;;12.15;78.40;99250.53;1687917;82;25707;-69
2021/05/14 01:15:54;;;;;;;52.70;29.30;;;;;;;12.17;78.34;99245.91;1656193;83;25869;-69
2021/05/14 01:18:23;;;;;;;55.73;31.52;;;;;;;12.12;78.40;99251.61;1678025;83;26295;-69
2021/05/14 01:20:52;;;;;;;56.73;29.80;;;;;;;12.08;78.68;99257.31;1680332;83;25597;-69
2021/05/14 01:23:22;;;;;;;55.63;29.40;;;;;;;12.02;78.70;99268.86;1643489;85;25739;-69
2021/05/14 01:25:52;;;;;;;60.25;30.27;;;;;;;12.00;79.14;99254.69;1624143;85;25626;-69
2021/05/14 01:28:21;;;;;;;68.20;31.65;;;;;;;11.97;79.07;99252.22;1654653;84;27703;-69
2021/05/14 01:30:53;;;;;;;52.30;24.60;;;;;;;11.95;79.08;99251.47;1623314;86;25599;-68
2021/05/14 01:33:24;;;;;;;57.83;29.60;;;;;;;11.94;79.29;99253.78;1636319;84;25626;-69
2021/05/14 01:35:53;;;;;;;60.28;28.80;;;;;;;11.91;79.26;99251.80;1664159;83;25664;-69
2021/05/14 01:38:23;;;;;;;49.53;25.17;;;;;;;11.89;79.38;99254.59;1676448;83;25470;-68
2021/05/14 01:40:53;;;;;;;52.17;27.30;;;;;;;11.88;79.63;99262.27;1650384;83;25861;-69
2021/05/14 01:43:23;;;;;;;48.98;25.92;;;;;;;11.86;79.59;99258.83;1692977;83;25842;-69
2021/05/14 01:45:53;;;;;;;52.10;26.97;;;;;;;11.87;79.41;99259.69;1667542;83;25717;-69
2021/05/14 01:48:27;;;;;;;51.30;27.05;;;;;;;11.88;79.41;99257.38;1688160;83;25583;-69
2021/05/14 01:51:04;;;;;;;45.30;22.95;;;;;;;11.87;79.39;99260.55;1644073;83;25665;-69
2021/05/14 01:53:33;;;;;;;56.48;26.52;;;;;;;11.87;79.62;99261.89;1691994;82;28008;-69
2021/05/14 01:56:01;;;;;;;54.95;26.82;;;;;;;11.85;79.56;99265.66;1681913;82;25774;-68
2021/05/14 01:58:32;;;;;;;57.03;29.67;;;;;;;11.85;79.60;99256.26;1700305;82;25836;-68
2021/05/14 02:01:01;;;;;;;60.43;26.48;;;;;;;11.87;79.69;99250.30;1654520;84;25860;-69
2021/05/14 02:03:33;;;;;;;57.43;30.43;;;;;;;11.89;79.71;99253.73;1651796;84;25659;-69
2021/05/14 02:06:03;;;;;;;49.03;25.57;;;;;;;11.91;79.67;99257.16;1622646;84;25864;-69
2021/05/14 02:08:32;;;;;;;55.23;26.68;;;;;;;11.93;79.61;99258.77;1656684;84;25719;-69
2021/05/14 02:11:03;;;;;;;51.95;25.88;;;;;;;11.94;79.55;99251.58;1650877;84;25580;-69
2021/05/14 02:13:35;;;;;;;53.68;27.25;;;;;;;11.89;79.59;99251.91;1654749;84;25768;-69
2021/05/14 02:16:06;;;;;;;54.53;28.02;;;;;;;11.89;79.66;99246.53;1639730;84;25724;-70
2021/05/14 02:18:36;;;;;;;;;;;;;;;11.91;79.87;99245.94;1657388;84;27300;-69
2021/05/14 02:21:07;;;;;;;53.13;27.58;;;;;;;11.92;80.01;99253.03;1623473;85;25865;-69
2021/05/14 02:23:37;;;;;;;;;;;;;;;11.91;79.82;99253.14;1640697;85;25714;-69
2021/05/14 02:26:06;;;;;;;47.45;23.60;;;;;;;11.94;79.92;99256.47;1661325;84;25729;-70
2021/05/14 02:28:35;;;;;;;47.58;26.40;;;;;;;11.93;79.79;99257.44;1631045;86;25914;-69
2021/05/14 02:31:04;;;;;;;42.67;22.20;;;;;;;11.92;79.82;99257.05;1653184;84;25704;-69
2021/05/14 02:33:33;;;;;;;48.75;25.15;;;;;;;11.94;79.68;99257.81;1619253;85;25869;-69
2021/05/14 02:36:04;;;;;;;47.03;26.52;;;;;;;11.96;79.61;99261.24;1631513;84;26018;-69
2021/05/14 02:38:35;;;;;;;46.20;23.80;;;;;;;11.98;79.60;99257.11;1631615;84;25785;-69
2021/05/14 02:41:08;;;;;;;54.38;27.45;;;;;;;11.97;79.62;99256.73;1651378;84;25718;-69
2021/05/14 02:43:38;;;;;;;42.60;24.12;;;;;;;11.96;79.67;99259.91;1647118;83;27311;-69
2021/05/14 02:46:09;;;;;;;52.00;26.33;;;;;;;11.95;79.68;99257.33;1638237;84;25608;-69
2021/05/14 02:48:38;;;;;;;43.65;23.50;;;;;;;11.98;79.68;99259.80;1640320;84;30707;-69
2021/05/14 02:51:07;;;;;;;50.38;25.25;;;;;;;11.98;79.68;99256.63;1651543;84;25760;-69
2021/05/14 02:53:37;;;;;;;49.03;28.02;;;;;;;12.00;79.67;99260.54;1644381;84;25647;-69
2021/05/14 02:56:06;;;;;;;50.85;27.45;;;;;;;12.01;79.93;99264.46;1610161;86;25744;-69
2021/05/14 02:58:37;;;;;;;48.45;26.07;;;;;;;11.98;80.02;99267.36;1635157;86;25972;-69
2021/05/14 03:01:07;;;;;;;47.27;24.65;;;;;;;11.94;80.06;99265.00;1628107;85;25741;-69
2021/05/14 03:03:38;;;;;;;49.38;27.67;;;;;;;11.91;80.03;99263.39;1652491;85;26093;-69
2021/05/14 03:06:07;;;;;;;48.55;27.07;;;;;;;11.93;80.07;99264.63;1651032;84;25814;-69
2021/05/14 03:08:37;;;;;;;47.25;27.07;;;;;;;11.94;80.00;99267.20;1631552;86;25773;-69
2021/05/14 03:11:07;;;;;;;56.13;28.20;;;;;;;11.97;79.99;99269.67;1658612;85;25880;-69
2021/05/14 03:13:38;;;;;;;46.92;26.10;;;;;;;11.97;79.98;99263.45;1632118;86;25752;-69
2021/05/14 03:16:08;;;;;;;46.77;25.90;;;;;;;11.97;79.98;99268.33;1640987;85;25604;-69
2021/05/14 03:18:39;;;;;;;50.05;25.80;;;;;;;11.97;79.94;99270.16;1649149;85;25679;-69
2021/05/14 03:21:08;;;;;;;50.98;23.77;;;;;;;11.99;79.88;99270.42;1629576;85;25924;-69
2021/05/14 03:23:37;;;;;;;46.28;24.15;;;;;;;12.01;79.86;99269.83;1655804;84;26220;-68
2021/05/14 03:26:06;;;;;;;43.65;22.45;;;;;;;12.03;80.15;99273.27;1666742;83;25797;-70
2021/05/14 03:28:37;;;;;;;46.60;23.85;;;;;;;12.02;80.10;99272.89;1656453;84;25847;-69
2021/05/14 03:31:07;;;;;;;49.10;27.07;;;;;;;12.01;80.16;99275.20;1660558;84;25570;-69
2021/05/14 03:33:36;;;;;;;43.92;23.75;;;;;;;12.00;80.12;99280.20;1637918;84;25933;-69
2021/05/14 03:36:06;;;;;;;49.75;25.90;;;;;;;12.02;80.18;99277.41;1635697;84;25840;-69
2021/05/14 03:38:38;;;;;;;40.58;23.45;;;;;;;12.01;80.11;99285.95;1653640;84;26099;-69
2021/05/14 03:41:30;;;;;;;44.00;24.47;;;;;;;12.03;80.13;99285.35;1655645;83;26084;-70
2021/05/14 03:43:49;;;;;;;44.33;23.10;;;;;;;12.04;80.15;99290.23;1625589;85;25628;-69
2021/05/14 03:46:19;;;;;;;46.40;23.57;;;;;;;12.06;80.19;99288.78;1624935;85;25849;-70
2021/05/14 03:48:48;;;;;;;43.40;22.42;;;;;;;12.06;80.26;99290.13;1639307;85;25715;-70
2021/05/14 03:51:17;;;;;;;44.13;23.80;;;;;;;12.04;80.15;99288.89;1660750;84;25742;-70
2021/05/14 03:53:47;;;;;;;49.63;25.12;;;;;;;12.08;80.14;99299.80;1639109;83;26214;-69
2021/05/14 03:56:17;;;;;;;37.27;21.47;;;;;;;12.09;80.15;99293.94;1627469;85;25785;-69
2021/05/14 03:58:47;;;;;;;43.35;21.50;;;;;;;12.08;80.16;99294.42;1632273;85;28202;-69
2021/05/14 04:01:17;;;;;;;40.00;22.22;;;;;;;12.08;80.27;99294.42;1642670;85;25768;-69
2021/05/14 04:03:49;;;;;;;38.35;19.52;;;;;;;12.10;80.21;99297.00;1651471;84;25853;-69
2021/05/14 04:06:24;;;;;;;43.28;22.25;;;;;;;12.12;80.18;99299.95;1647401;85;25684;-69
2021/05/14 04:08:56;;;;;;;34.75;19.48;;;;;;;12.12;80.22;99301.30;1662673;83;25792;-69
2021/05/14 04:14:46;;;;;;;;;;;;;;;;;;;;;
2021/05/14 04:16:42;;;;;;;41.55;19.70;;;;;;;12.18;80.17;99307.58;1646716;83;25633;-69
2021/05/14 04:19:11;;;;;;;36.28;18.75;;;;;;;12.21;80.09;99304.67;1664084;83;25588;-69
2021/05/14 04:21:42;;;;;;;36.33;18.92;;;;;;;12.23;80.04;99314.83;1670790;83;25433;-69
2021/05/14 04:24:11;;;;;;;37.17;19.80;;;;;;;12.25;80.08;99310.20;1691708;82;27182;-69
2021/05/14 04:26:42;;;;;;;41.25;21.55;;;;;;;12.24;80.15;99304.45;1706291;82;25771;-69
2021/05/14 04:29:12;;;;;;;37.85;21.23;;;;;;;12.24;80.05;99306.28;1695512;82;25771;-69
2021/05/14 04:31:42;;;;;;;37.70;20.23;;;;;;;12.26;79.99;99311.06;1688169;83;25770;-69
2021/05/14 04:34:15;;;;;;;40.15;21.05;;;;;;;12.30;79.92;99305.84;1693284;82;25729;-69
2021/05/14 04:36:47;;;;;;;38.25;20.12;;;;;;;12.27;79.75;99303.38;1668465;84;26335;-69
2021/05/14 04:39:20;;;;;;;49.38;22.52;;;;;;;12.27;79.73;99306.06;1667974;83;25967;-69
2021/05/14 04:41:52;;;;;;;49.80;21.52;;;;;;;12.28;79.71;99303.75;1689977;82;25976;-69
2021/05/14 04:44:20;;;;;;;37.73;20.85;;;;;;;12.25;79.71;99308.00;1674908;83;25726;-69
2021/05/14 04:46:52;;;;;;;43.13;19.25;;;;;;;12.22;79.71;99310.91;1675294;82;26208;-69
2021/05/14 04:49:21;;;;;;;43.23;21.93;;;;;;;12.21;79.79;99314.08;1629105;85;28277;-69
2021/05/14 04:51:52;;;;;;;47.53;22.82;;;;;;;12.22;79.78;99320.30;1621072;86;26132;-69
2021/05/14 04:54:21;;;;;;;46.45;23.95;;;;;;;12.19;79.76;99315.15;1637712;85;25689;-69
2021/05/14 04:56:52;;;;;;;50.67;23.62;;;;;;;12.17;79.81;99310.38;1662267;84;25731;-69
2021/05/14 04:59:21;;;;;;;44.45;20.50;;;;;;;12.16;79.78;99319.40;1658521;84;25784;-69
2021/05/14 05:01:52;;;;;;;46.92;22.40;;;;;;;12.17;79.92;99322.45;1659581;84;25844;-71
2021/05/14 05:04:21;;;;;;;47.58;21.40;;;;;;;12.14;80.00;99318.65;1675284;83;25680;-70
2021/05/14 05:06:52;;;;;;;41.98;21.02;;;;;;;12.16;79.98;99318.91;1688786;83;25814;-70
2021/05/14 05:09:21;;;;;;;47.62;22.22;;;;;;;12.16;80.06;99316.23;1676152;84;27462;-69
2021/05/14 05:11:52;;;;;;;44.27;20.10;;;;;;;12.15;80.13;99319.02;1680567;83;26032;-70
2021/05/14 05:14:25;;;;;;;;;;;;;;;12.14;80.33;99308.77;1668825;84;27299;-70
2021/05/14 05:16:54;;;;;;;41.80;19.55;;;;;;;12.16;80.43;99313.54;1668412;83;25793;-70
2021/05/14 05:19:24;;;;;;;35.68;18.00;;;;;;;12.19;80.46;99311.98;1667668;83;26008;-70
2021/05/14 05:21:56;;;;;;;43.63;19.25;;;;;;;12.26;80.50;99311.06;1689552;82;25668;-70
2021/05/14 05:24:26;;;;;;;32.00;19.05;;;;;;;12.30;80.48;99308.05;1670179;84;26036;-71
2021/05/14 05:27:02;;;;;;;46.10;18.75;;;;;;;12.34;80.64;99312.23;1691617;83;26185;-70
2021/05/14 05:29:36;;;;;;;37.70;19.17;;;;;;;12.32;80.50;99314.16;1683416;83;25893;-69
2021/05/14 05:32:07;;;;;;;34.80;19.07;;;;;;;12.34;80.49;99314.91;1663659;83;26140;-70
2021/05/14 05:34:37;;;;;;;;;;;;;;;12.35;80.55;99319.80;1668304;83;26047;-70
2021/05/14 05:37:06;;;;;;;34.92;16.32;;;;;;;12.35;80.64;99322.01;1653316;84;27509;-71
2021/05/14 05:39:35;;;;;;;32.05;16.77;;;;;;;12.38;80.60;99325.44;1647989;84;25920;-72
2021/05/14 05:42:06;;;;;;;35.73;17.10;;;;;;;12.36;80.54;99325.55;1616530;85;25653;-72
2021/05/14 05:44:36;;;;;;;39.60;16.80;;;;;;;12.35;80.63;99326.52;1653804;84;25610;-71
2021/05/14 05:47:05;;;;;;;38.58;17.52;;;;;;;12.35;80.66;99331.89;1608743;86;26326;-72
2021/05/14 05:49:36;;;;;;;25.82;16.37;;;;;;;12.36;80.67;99334.95;1633251;85;25723;-71
2021/05/14 05:52:07;;;;;;;29.00;16.15;;;;;;;12.39;80.71;99333.88;1667043;83;27872;-72
2021/05/14 05:54:36;;;;;;;28.35;14.78;;;;;;;12.40;80.67;99336.45;1669162;84;30387;-72
2021/05/14 05:57:06;;;;;;;29.77;14.85;;;;;;;12.45;80.66;99334.78;1681811;83;25813;-72
2021/05/14 05:59:38;;;;;;;31.90;15.88;;;;;;;12.48;80.69;99335.42;1657361;84;25796;-72
2021/05/14 06:02:07;;;;;;;29.18;15.10;;;;;;;12.55;80.66;99343.42;1690918;82;26222;-72
2021/05/14 06:04:36;;;;;;;34.70;15.40;;;;;;;12.59;80.57;99348.95;1673351;84;25802;-72
2021/05/14 06:07:06;;;;;;;33.20;14.10;;;;;;;12.60;80.47;99357.38;1674408;83;25802;-72
2021/05/14 06:09:37;;;;;;;30.47;15.03;;;;;;;12.59;80.58;99349.44;1677218;83;25796;-72
2021/05/14 06:12:07;;;;;;;25.02;15.15;;;;;;;12.55;80.55;99351.48;1674809;83;25773;-72
2021/05/14 06:14:36;;;;;;;27.32;16.42;;;;;;;12.53;80.60;99353.91;1683305;82;25419;-71
2021/05/14 06:17:12;;;;;;;26.77;14.55;;;;;;;12.49;80.65;99349.23;1667006;83;26183;-72
2021/05/14 06:19:42;;;;;;;24.37;14.98;;;;;;;12.53;80.64;99349.39;1645259;84;33296;-70
2021/05/14 06:22:12;;;;;;;31.75;15.18;;;;;;;12.55;80.55;99354.66;1673062;83;25812;-67
2021/05/14 06:24:42;;;;;;;35.25;15.72;;;;;;;12.57;80.78;99359.44;1698649;82;25786;-69
2021/05/14 06:27:12;;;;;;;39.27;17.02;;;;;;;12.51;80.81;99359.39;1677198;83;25852;-69
2021/05/14 06:29:45;;;;;;;35.92;16.07;;;;;;;12.50;80.79;99363.05;1693808;82;25838;-65
2021/05/14 06:32:15;;;;;;;42.70;17.30;;;;;;;12.57;80.74;99371.05;1674904;83;25723;-66
2021/05/14 06:34:45;;;;;;;32.67;16.77;;;;;;;12.57;80.67;99361.64;1676640;83;25947;-67
2021/05/14 06:37:19;;;;;;;29.18;15.30;;;;;;;12.61;80.75;99361.79;1678885;83;26123;-68
2021/05/14 06:39:48;;;;;;;28.83;15.90;;;;;;;12.62;80.73;99367.55;1681329;83;25777;-67
2021/05/14 06:42:16;;;;;;;28.25;14.75;;;;;;;12.59;80.79;99372.28;1663664;83;27900;-68
2021/05/14 06:44:47;;;;;;;33.58;15.45;;;;;;;12.61;80.81;99375.23;1700512;83;25593;-68
2021/05/14 06:47:16;;;;;;;52.17;17.00;;;;;;;12.61;80.87;99369.00;1670949;83;25580;-70
2021/05/14 06:49:47;;;;;;;35.28;15.93;;;;;;;12.64;80.74;99376.36;1674044;84;25685;-69
2021/05/14 06:52:21;;;;;;;39.18;14.85;;;;;;;12.64;80.70;99373.67;1675463;83;25757;-67
2021/05/14 06:54:55;;;;;;;44.75;14.15;;;;;;;12.66;80.62;99375.77;1699697;82;25683;-66
2021/05/14 06:57:25;;;;;;;30.17;13.88;;;;;;;12.70;80.63;99383.61;1705050;82;25746;-62
2021/05/14 06:59:57;;;;;;;31.07;14.00;;;;;;;12.65;80.55;99382.11;1675408;83;25797;-67
2021/05/14 07:02:29;;;;;;;25.70;12.98;;;;;;;12.60;80.63;99378.03;1677486;83;26294;-68
2021/05/14 07:04:59;;;;;;;25.32;11.85;;;;;;;12.58;80.64;99384.86;1686845;82;25905;-69
2021/05/14 07:07:31;;;;;;;22.22;11.93;;;;;;;12.62;80.80;99389.05;1693916;82;27462;-76
2021/05/14 07:10:06;;;;;;;18.42;10.98;;;;;;;12.61;80.80;99392.70;1676957;82;25782;-67
2021/05/14 07:12:36;;;;;;;21.68;11.10;;;;;;;12.59;80.77;99399.16;1671955;83;25787;-69
2021/05/14 07:15:09;;;;;;;24.57;11.70;;;;;;;12.63;80.69;99395.28;1706496;82;25787;-69
2021/05/14 07:17:37;;;;;;;17.57;10.58;;;;;;;12.66;80.63;99395.92;1670852;83;25725;-70
2021/05/14 07:20:08;;;;;;;35.58;12.20;;;;;;;12.71;80.61;99396.08;1640807;84;25819;-67
2021/05/14 07:22:41;;;;;;;29.87;11.03;;;;;;;12.76;80.53;99393.92;1646453;82;26036;-67
2021/05/14 07:25:12;;;;;;;21.85;10.72;;;;;;;12.81;80.49;99396.65;1649364;84;25754;-68
2021/05/14 07:27:40;;;;;;;29.42;9.95;;;;;;;12.82;80.32;99395.68;1661215;83;25830;-66
2021/05/14 07:30:13;;;;;;;22.85;10.65;;;;;;;12.86;80.32;99401.70;1672624;83;25870;-67
2021/05/14 07:32:42;;;;;;;20.10;10.28;;;;;;;12.86;80.21;99396.31;1645348;84;25715;-70
2021/05/14 07:35:14;;;;;;;14.13;9.43;;;;;;;12.92;80.19;99402.11;1674224;83;25904;-71
2021/05/14 07:37:43;;;;;;;12.80;8.70;;;;;;;13.01;80.12;99393.82;1674075;83;25782;-71
2021/05/14 07:40:16;;;;;;;16.35;8.68;;;;;;;13.18;80.07;99393.95;1677570;83;26106;-71
2021/05/14 07:42:44;;;;;;;12.70;8.35;;;;;;;13.33;79.89;99399.55;1664563;84;25622;-71
2021/05/14 07:45:13;;;;;;;15.50;8.73;;;;;;;13.43;79.66;99407.80;1671605;82;25748;-72
2021/05/14 07:47:42;;;;;;;12.58;8.05;;;;;;;13.44;79.41;99410.86;1673237;83;25684;-68
2021/05/14 07:50:13;;;;;;;10.03;7.60;;;;;;;13.44;79.18;99408.17;1672926;84;25657;-69
2021/05/14 07:52:42;;;;;;;24.27;8.13;;;;;;;13.41;79.02;99415.98;1681125;83;26623;-69
2021/05/14 07:55:12;;;;;;;11.83;8.08;;;;;;;13.41;78.82;99413.78;1679806;83;25608;-71
2021/05/14 07:57:42;;;;;;;35.75;9.18;;;;;;;13.40;78.71;99414.76;1686767;82;25888;-68
2021/05/14 08:00:15;;;;;;;18.73;8.58;;;;;;;13.41;78.49;99413.78;1678144;82;25781;-67
2021/05/14 08:02:46;;;;;;;17.45;7.83;;;;;;;13.44;78.42;99418.94;1698650;81;25641;-68
2021/05/14 08:05:16;;;;;;;13.23;6.60;;;;;;;13.46;78.20;99416.99;1687652;82;25830;-68
2021/05/14 08:08:18;;;;;;;14.50;7.20;;;;;;;13.44;78.02;99414.41;1686321;83;25870;-67
2021/05/14 08:10:41;;;;;;;17.75;7.58;;;;;;;13.47;77.96;99422.27;1650131;84;26154;-68
2021/05/14 08:13:11;;;;;;;15.05;6.87;;;;;;;13.50;77.79;99419.83;1677229;83;25810;-70
2021/05/14 08:15:40;;;;;;;14.67;7.67;;;;;;;13.51;77.56;99418.85;1698553;82;25688;-70
2021/05/14 08:18:08;;;;;;;15.65;7.08;;;;;;;13.53;77.51;99420.94;1702762;82;25598;-69
2021/05/14 08:20:39;;;;;;;14.00;6.78;;;;;;;13.54;77.39;99424.00;1670566;84;25604;-68
2021/05/14 08:23:12;;;;;;;10.68;6.97;;;;;;;13.61;77.27;99427.95;1617100;86;27451;-70
2021/05/14 08:25:40;;;;;;;20.15;6.95;;;;;;;13.63;77.14;99438.13;1617471;86;25880;-69
2021/05/14 08:28:12;;;;;;;14.58;6.30;;;;;;;13.63;77.07;99430.05;1617616;86;25749;-69
2021/05/14 08:30:42;;;;;;;14.78;6.85;;;;;;;13.68;76.90;99439.98;1626220;86;25762;-69
2021/05/14 08:33:11;;;;;;;13.55;6.47;;;;;;;13.68;76.81;99427.01;1661953;83;25854;-69
2021/05/14 08:35:40;;;;;;;37.50;8.28;;;;;;;13.74;76.70;99423.85;1689225;82;26035;-68
2021/05/14 08:38:12;;;;;;;8.93;5.55;;;;;;;13.77;76.57;99424.97;1674178;83;25734;-67
2021/05/14 08:40:40;;;;;;;12.40;6.20;;;;;;;13.76;76.23;99434.02;1664471;83;25739;-68
2021/05/14 08:43:11;;;;;;;15.58;5.53;;;;;;;13.68;75.91;99442.67;1671438;83;25621;-68
2021/05/14 08:45:42;;;;;;;20.82;5.55;;;;;;;13.68;76.02;99440.47;1681652;83;25658;-68
2021/05/14 08:48:12;;;;;;;8.65;6.37;;;;;;;13.72;76.02;99442.81;1668691;83;27315;-67
2021/05/14 08:50:42;;;;;;;10.80;5.22;;;;;;;13.82;75.79;99439.80;1624996;86;25804;-66
2021/05/14 08:53:12;;;;;;;27.45;6.15;;;;;;;13.84;75.64;99449.97;1624406;85;25746;-69
2021/05/14 08:55:46;;;;;;;13.45;5.78;;;;;;;13.83;75.49;99436.13;1638127;84;25711;-67
2021/05/14 08:58:14;;;;;;;9.98;6.12;;;;;;;13.91;75.52;99440.94;1629394;85;25627;-68
2021/05/14 09:00:45;;;;;;;6.72;5.85;;;;;;;13.97;75.37;99439.98;1655772;84;26219;-68
2021/05/14 09:03:14;;;;;;;15.00;6.03;;;;;;;14.04;75.32;99443.55;1632007;85;25824;-67
2021/05/14 09:05:50;;;;;;;8.60;5.92;;;;;;;14.06;75.17;99440.25;1713613;81;25762;-68
2021/05/14 09:08:31;;;;;;;10.30;5.58;;;;;;;14.08;74.97;99450.42;1703012;82;25798;-68
2021/05/14 09:11:00;;;;;;;;;;;;;;;13.93;74.79;99453.80;1675125;82;25756;-68
2021/05/14 09:13:37;;;;;;;8.55;5.47;;;;;;;13.93;74.79;99450.63;1673814;82;27359;-71
2021/05/14 09:16:07;;;;;;;11.63;6.17;;;;;;;13.89;74.81;99460.40;1681149;82;25946;-68
2021/05/14 09:18:38;;;;;;;14.68;5.70;;;;;;;13.82;74.77;99453.27;1706807;81;25685;-70
2021/05/14 09:21:07;;;;;;;19.42;5.92;;;;;;;13.93;74.90;99464.58;1675650;82;25788;-68
2021/05/14 09:23:40;;;;;;;11.48;6.90;;;;;;;13.98;74.80;99462.39;1685868;82;25813;-67
2021/05/14 09:26:13;;;;;;;10.40;6.17;;;;;;;14.03;74.74;99462.05;1674868;82;25706;-68
2021/05/14 09:28:55;;;;;;;13.85;6.90;;;;;;;14.02;74.79;99458.98;1672398;83;25709;-69
2021/05/14 09:31:27;;;;;;;13.78;6.90;;;;;;;14.09;74.70;99461.58;1698399;82;25831;-69
2021/05/14 09:34:02;;;;;;;12.60;6.35;;;;;;;14.06;74.69;99457.77;1675260;83;25977;-70
2021/05/14 09:36:37;;;;;;;12.35;6.17;;;;;;;14.08;74.74;99467.45;1675546;83;25682;-76
2021/05/14 09:39:09;;;;;;;17.02;6.30;;;;;;;14.12;74.70;99462.69;1665760;83;25958;-67
2021/05/14 09:41:45;;;;;;;13.22;5.50;;;;;;;14.16;74.67;99465.52;1696104;82;25810;-68
2021/05/14 09:44:20;;;;;;;11.55;4.80;;;;;;;14.23;74.47;99473.50;1672132;83;26231;-68
2021/05/14 09:46:57;;;;;;;18.37;6.25;;;;;;;14.22;74.39;99475.83;1701971;82;25812;-68
2021/05/14 09:49:29;;;;;;;25.68;5.92;;;;;;;14.23;74.10;99473.02;1675035;83;25788;-69
2021/05/14 09:52:03;;;;;;;;;;;;;;;14.17;73.92;99480.22;1680257;83;28184;-68
2021/05/14 09:54:40;;;;;;;24.37;7.08;;;;;;;14.14;74.08;99466.98;1676870;83;25712;-68
2021/05/14 09:57:41;;;;;;;26.48;8.63;;;;;;;14.26;74.05;99467.87;1680736;83;25604;-67
2021/05/14 10:00:16;;;;;;;10.53;5.75;;;;;;;14.36;73.91;99474.77;1698841;82;25618;-67
2021/05/14 10:02:48;;;;;;;13.13;6.50;;;;;;;14.42;73.49;99470.27;1687861;82;25681;-70
2021/05/14 10:05:18;;;;;;;12.75;7.05;;;;;;;14.44;73.46;99464.27;1668001;83;26027;-71
2021/05/14 10:07:48;;;;;;;24.37;8.08;;;;;;;14.47;73.31;99472.98;1668934;84;25939;-68
2021/05/14 10:10:19;;;;;;;22.93;7.87;;;;;;;14.46;73.39;99472.61;1690453;83;26065;-66
2021/05/14 10:12:49;;;;;;;28.87;8.63;;;;;;;14.50;73.31;99478.62;1607186;87;25656;-68
2021/05/14 10:15:19;;;;;;;12.13;6.87;;;;;;;14.49;73.11;99470.17;1658997;83;25602;-67
2021/05/14 10:17:52;;;;;;;14.47;6.70;;;;;;;14.45;73.05;99470.89;1627563;85;27312;-69
2021/05/14 10:20:31;;;;;;;16.73;6.05;;;;;;;14.41;73.08;99474.77;1662583;84;25740;-69
2021/05/14 10:23:03;;;;;;;39.73;8.18;;;;;;;14.37;73.02;99483.22;1663963;83;25915;-71
2021/05/14 10:25:48;;;;;;;15.53;7.00;;;;;;;14.37;73.03;99480.03;1671391;83;25624;-69
2021/05/14 10:28:24;;;;;;;10.95;6.12;;;;;;;14.37;72.98;99474.64;1679202;83;25764;-67
2021/05/14 10:31:08;;;;;;;11.65;6.25;;;;;;;14.30;72.94;99481.00;1693589;82;27165;-70
2021/05/14 10:33:53;;;;;;;23.10;6.30;;;;;;;14.27;72.99;99479.88;1668290;84;25617;-70
2021/05/14 10:36:32;;;;;;;15.43;6.78;;;;;;;14.25;72.98;99484.53;1673738;83;25831;-70
2021/05/14 10:39:27;;;;;;;24.77;6.15;;;;;;;14.30;73.03;99482.83;1642821;83;26160;-69
2021/05/14 10:42:19;;;;;;;10.65;5.83;;;;;;;14.37;73.10;99485.42;1662132;83;25650;-69
2021/05/14 10:44:55;;;;;;;16.12;7.37;;;;;;;14.52;73.13;99483.41;1694733;83;27859;-71
2021/05/14 10:47:42;;;;;;;20.10;6.80;;;;;;;14.61;73.08;99476.81;1695767;82;25675;-71
2021/05/14 10:50:37;;;;;;;18.48;5.22;;;;;;;14.72;72.90;99489.94;1688015;83;25762;-70
2021/05/14 10:53:27;;;;;;;78.55;9.60;;;;;;;14.57;72.54;99486.61;1671280;83;25925;-69
2021/05/14 10:56:15;;;;;;;15.80;5.47;;;;;;;14.46;72.48;99487.44;1669641;83;25774;-69
2021/05/14 10:58:52;;;;;;;19.05;5.67;;;;;;;14.37;72.49;99490.81;1684813;83;25871;-70
2021/05/14 11:01:43;;;;;;;26.77;6.00;;;;;;;14.34;72.66;99491.55;1661156;83;25721;-70
2021/05/14 11:04:16;;;;;;;42.20;10.35;;;;;;;14.42;72.65;99492.70;1660479;83;25707;-70
2021/05/14 11:06:54;;;;;;;14.75;5.90;;;;;;;14.47;72.58;99497.73;1663359;83;26093;-70
2021/05/14 11:09:27;;;;;;;19.60;7.60;;;;;;;14.49;72.59;99497.13;1685717;82;25761;-69
2021/05/14 11:12:09;;;;;;;18.32;5.50;;;;;;;14.53;72.43;99501.30;1683857;83;28173;-71
2021/05/14 11:14:50;;;;;;;13.35;5.75;;;;;;;14.50;72.31;99505.09;1676347;83;25608;-70
2021/05/14 11:17:22;;;;;;;9.88;4.80;;;;;;;14.44;72.31;99500.19;1676343;83;25717;-70
2021/05/14 11:19:53;;;;;;;14.28;6.08;;;;;;;14.38;72.30;99507.36;1674099;83;25910;-69
2021/05/14 11:22:37;;;;;;;;;;;;;;;14.33;72.38;99494.73;1685384;82;25608;-70
2021/05/14 11:25:21;;;;;;;12.60;5.15;;;;;;;14.40;72.42;99505.41;1665985;83;28238;-70
2021/05/14 11:27:54;;;;;;;23.22;5.70;;;;;;;14.43;72.30;99501.65;1660820;84;25960;-70
2021/05/14 11:30:24;;;;;;;15.18;5.75;;;;;;;14.37;72.24;99504.30;1691798;82;25628;-70
2021/05/14 11:32:55;;;;;;;10.10;6.10;;;;;;;14.33;72.36;99506.86;1676304;81;26024;-71
2021/05/14 11:35:30;;;;;;;11.08;5.28;;;;;;;14.33;72.35;99515.44;1631731;84;25729;-70
2021/05/14 11:38:02;;;;;;;8.93;4.95;;;;;;;14.25;72.33;99516.02;1658928;84;25845;-70
2021/05/14 11:40:53;;;;;;;;;;;;;;;;;;;;;
2021/05/14 11:43:13;;;;;;;19.95;6.90;;;;;;;14.07;72.37;99516.93;1653601;83;25581;-71
2021/05/14 11:45:44;;;;;;;45.28;7.78;;;;;;;14.08;72.60;99519.13;1687737;82;25856;-69
2021/05/14 11:48:17;;;;;;;;;;;;;;;14.10;72.63;99520.73;1693895;83;25658;-69